Time;durP1;ratioP1;P1;durP2;ratioP2;P2;SDS_P1;SDS_P2;PMS_P1;PMS_P2;Temp;Humidity;BMP_temperature;BMP_pressure;BME280_temperature;BME280_humidity;BME280_pressure;Samples;Min_cycle;Max_cycle;Signal;HPM_P1;HPM_P2
2022/04/20 00:00:37;;;;;;;58.08;2.47;;;;;;;;;;5088171;28;20201;-71
2022/04/20 00:03:06;;;;;;;58.17;2.40;;;;;;;;;;5086678;28;20305;-71
2022/04/20 00:05:33;;;;;;;58.17;2.47;;;;;;;;;;5091198;28;20466;-71
2022/04/20 00:08:01;;;;;;;58.23;2.50;;;;;;;;;;5091813;28;20309;-71
2022/04/20 00:10:28;;;;;;;58.67;2.90;;;;;;;;;;5086318;28;20459;-71
2022/04/20 00:12:55;;;;;;;58.17;2.53;;;;;;;;;;5088580;28;20496;-71
2022/04/20 00:15:22;;;;;;;58.27;2.60;;;;;;;;;;5091538;28;20203;-71
2022/04/20 00:17:49;;;;;;;58.30;2.63;;;;;;;;;;5084740;28;20817;-71
2022/04/20 00:20:18;;;;;;;58.38;2.67;;;;;;;;;;5084483;28;20207;-71
2022/04/20 00:22:45;;;;;;;58.20;2.70;;;;;;;;;;5089089;28;20649;-71
2022/04/20 00:25:12;;;;;;;58.28;2.70;;;;;;;;;;5089129;28;20665;-71
2022/04/20 00:27:40;;;;;;;58.38;2.90;;;;;;;;;;5089835;28;20221;-71
2022/04/20 00:30:08;;;;;;;58.08;2.80;;;;;;;;;;5086504;28;20231;-71
2022/04/20 00:32:35;;;;;;;58.15;2.75;;;;;;;;;;5090736;28;20228;-71
2022/04/20 00:35:02;;;;;;;58.17;2.60;;;;;;;;;;5089617;28;20211;-71
2022/04/20 00:37:31;;;;;;;58.05;2.50;;;;;;;;;;5089968;28;20200;-71
2022/04/20 00:39:58;;;;;;;58.15;2.55;;;;;;;;;;5090170;28;20320;-71
2022/04/20 00:42:27;;;;;;;58.28;2.53;;;;;;;;;;5092154;28;20203;-71
2022/04/20 00:44:55;;;;;;;57.88;2.50;;;;;;;;;;5086141;28;20305;-71
2022/04/20 00:47:23;;;;;;;58.28;2.60;;;;;;;;;;5083257;28;20196;-71
2022/04/20 00:49:50;;;;;;;58.05;2.70;;;;;;;;;;5090825;28;20256;-71
2022/04/20 00:52:17;;;;;;;57.97;2.60;;;;;;;;;;5086455;28;20650;-71
2022/04/20 00:54:45;;;;;;;58.40;3.20;;;;;;;;;;5090225;28;20207;-71
2022/04/20 00:57:15;;;;;;;57.97;2.65;;;;;;;;;;5080207;28;20216;-71
2022/04/20 00:59:43;;;;;;;57.88;2.63;;;;;;;;;;5094008;28;20208;-71
2022/04/20 01:02:10;;;;;;;58.17;2.45;;;;;;;;;;5093654;28;20211;-71
2022/04/20 01:04:38;;;;;;;57.97;2.55;;;;;;;;;;5088024;28;20288;-71
2022/04/20 01:07:11;;;;;;;58.20;2.53;;;;;;;;;;5093814;28;20739;-71
2022/04/20 01:09:38;;;;;;;58.15;2.60;;;;;;;;;;5094571;28;20235;-71
2022/04/20 01:12:07;;;;;;;58.50;2.90;;;;;;;;;;5092228;28;20687;-71
2022/04/20 01:14:35;;;;;;;58.20;2.55;;;;;;;;;;5094408;28;20629;-71
2022/04/20 01:17:02;;;;;;;58.30;2.65;;;;;;;;;;5092091;28;20210;-71
2022/04/20 01:19:33;;;;;;;58.28;3.33;;;;;;;;;;5093086;28;20679;-71
2022/04/20 01:22:01;;;;;;;58.38;2.63;;;;;;;;;;5092013;28;20208;-71
2022/04/20 01:24:29;;;;;;;58.25;2.78;;;;;;;;;;5086430;28;20205;-71
2022/04/20 01:26:57;;;;;;;58.05;2.67;;;;;;;;;;5092357;28;20206;-71
2022/04/20 01:29:24;;;;;;;58.30;2.83;;;;;;;;;;5093296;28;20607;-71
2022/04/20 01:31:51;;;;;;;58.33;2.45;;;;;;;;;;5088850;28;20204;-71
2022/04/20 01:34:19;;;;;;;58.25;2.70;;;;;;;;;;5095196;28;20299;-71
2022/04/20 01:36:47;;;;;;;58.05;2.60;;;;;;;;;;5093263;28;20304;-71
2022/04/20 01:39:16;;;;;;;58.30;2.70;;;;;;;;;;5092946;28;20256;-71
2022/04/20 01:41:43;;;;;;;58.50;2.70;;;;;;;;;;5087802;28;20196;-71
2022/04/20 01:44:10;;;;;;;58.28;2.78;;;;;;;;;;5095168;28;20201;-71
2022/04/20 01:46:38;;;;;;;58.38;2.72;;;;;;;;;;5089271;28;20207;-71
2022/04/20 01:49:06;;;;;;;58.40;2.80;;;;;;;;;;5088193;28;20300;-71
2022/04/20 01:51:50;;;;;;;58.13;2.78;;;;;;;;;;5094600;28;20657;-71
2022/04/20 01:54:19;;;;;;;58.35;2.70;;;;;;;;;;5092420;28;20207;-71
2022/04/20 01:56:47;;;;;;;58.20;2.72;;;;;;;;;;5092559;28;20212;-70
2022/04/20 01:59:14;;;;;;;58.35;2.90;;;;;;;;;;5094263;28;20358;-71
2022/04/20 02:04:27;;;;;;;58.28;2.60;;;;;;;;;;5087515;28;20269;-71
2022/04/20 02:06:54;;;;;;;58.25;2.42;;;;;;;;;;5089619;28;20200;-71
2022/04/20 02:09:23;;;;;;;58.17;2.60;;;;;;;;;;5086239;28;20308;-70
2022/04/20 02:11:50;;;;;;;58.72;3.40;;;;;;;;;;5092416;28;20204;-71
2022/04/20 02:14:17;;;;;;;58.38;2.53;;;;;;;;;;5094493;28;20243;-71
2022/04/20 02:16:44;;;;;;;58.40;2.72;;;;;;;;;;5090037;28;20201;-71
2022/04/20 02:19:11;;;;;;;58.28;3.00;;;;;;;;;;5093952;28;20265;-71
2022/04/20 02:21:38;;;;;;;58.28;2.80;;;;;;;;;;5094734;28;20590;-70
2022/04/20 02:24:06;;;;;;;58.35;2.90;;;;;;;;;;5089609;28;20295;-73
2022/04/20 02:26:34;;;;;;;58.35;2.78;;;;;;;;;;5090237;28;20196;-73
2022/04/20 02:29:01;;;;;;;58.47;2.83;;;;;;;;;;5087975;28;20224;-70
2022/04/20 02:31:29;;;;;;;58.47;3.00;;;;;;;;;;5094589;28;20653;-70
2022/04/20 02:33:56;;;;;;;58.38;2.85;;;;;;;;;;5093160;28;20701;-70
2022/04/20 02:36:23;;;;;;;58.30;2.63;;;;;;;;;;5094137;28;20231;-70
2022/04/20 02:38:50;;;;;;;58.35;2.70;;;;;;;;;;5086239;28;20312;-70
2022/04/20 02:41:18;;;;;;;58.30;2.75;;;;;;;;;;5092417;28;20300;-70
2022/04/20 02:43:46;;;;;;;58.33;2.75;;;;;;;;;;5091542;28;20203;-70
2022/04/20 02:46:14;;;;;;;58.30;2.72;;;;;;;;;;5092335;28;20715;-70
2022/04/20 02:48:41;;;;;;;58.25;2.88;;;;;;;;;;5084455;28;20293;-70
2022/04/20 02:51:09;;;;;;;58.38;3.00;;;;;;;;;;5092802;28;20401;-70
2022/04/20 02:53:36;;;;;;;58.28;2.70;;;;;;;;;;5092406;28;20196;-70
2022/04/20 02:56:04;;;;;;;58.40;3.10;;;;;;;;;;5090133;28;20300;-71
2022/04/20 02:58:31;;;;;;;58.40;2.80;;;;;;;;;;5086084;28;20222;-70
2022/04/20 03:00:59;;;;;;;58.78;2.90;;;;;;;;;;5093924;28;20287;-70
2022/04/20 03:03:26;;;;;;;58.28;2.78;;;;;;;;;;5089853;28;20203;-70
2022/04/20 03:05:54;;;;;;;58.45;2.85;;;;;;;;;;5092748;28;20299;-70
2022/04/20 03:08:23;;;;;;;58.55;2.65;;;;;;;;;;5088547;28;20232;-70
2022/04/20 03:10:51;;;;;;;58.30;2.72;;;;;;;;;;5093402;28;20254;-70
2022/04/20 03:13:18;;;;;;;58.25;2.78;;;;;;;;;;5091402;28;20660;-71
2022/04/20 03:15:46;;;;;;;58.38;2.63;;;;;;;;;;5084916;28;20292;-70
2022/04/20 03:18:15;;;;;;;58.30;2.70;;;;;;;;;;5092676;28;20220;-70
2022/04/20 03:20:42;;;;;;;58.28;2.63;;;;;;;;;;5091845;28;20204;-70
2022/04/20 03:23:12;;;;;;;58.38;2.75;;;;;;;;;;5093172;28;20205;-70
2022/04/20 03:25:40;;;;;;;58.38;2.95;;;;;;;;;;5089209;28;20232;-70
2022/04/20 03:28:07;;;;;;;58.47;2.83;;;;;;;;;;5084271;28;20605;-70
2022/04/20 03:30:35;;;;;;;58.30;2.72;;;;;;;;;;5093130;28;20724;-72
2022/04/20 03:33:02;;;;;;;58.35;2.88;;;;;;;;;;5091682;28;20204;-70
2022/04/20 03:35:30;;;;;;;58.70;3.28;;;;;;;;;;5089333;28;20311;-70
2022/04/20 03:37:58;;;;;;;58.47;3.00;;;;;;;;;;5091162;28;20201;-70
2022/04/20 03:40:25;;;;;;;58.20;2.60;;;;;;;;;;5093076;28;20287;-70
2022/04/20 03:42:52;;;;;;;57.35;2.70;;;;;;;;;;5091529;28;20312;-70
2022/04/20 03:45:20;;;;;;;58.38;2.63;;;;;;;;;;5088760;28;20570;-70
2022/04/20 03:47:47;;;;;;;58.28;3.10;;;;;;;;;;5083203;28;20299;-70
2022/04/20 03:50:14;;;;;;;58.35;2.90;;;;;;;;;;5092473;28;20314;-70
2022/04/20 03:52:43;;;;;;;58.47;2.80;;;;;;;;;;5091495;28;20254;-70
2022/04/20 03:55:10;;;;;;;58.38;2.70;;;;;;;;;;5091030;28;20239;-73
2022/04/20 03:57:37;;;;;;;58.25;2.70;;;;;;;;;;5085823;28;20228;-70
2022/04/20 04:00:05;;;;;;;58.40;2.78;;;;;;;;;;5085179;28;20307;-70
2022/04/20 04:02:32;;;;;;;58.38;2.80;;;;;;;;;;5090517;28;20290;-70
2022/04/20 04:04:59;;;;;;;58.20;2.80;;;;;;;;;;5091272;28;20200;-70
2022/04/20 04:07:26;;;;;;;58.33;2.70;;;;;;;;;;5088190;28;20300;-73
2022/04/20 04:09:55;;;;;;;58.33;2.80;;;;;;;;;;5090896;28;20704;-71
2022/04/20 04:12:26;;;;;;;57.97;2.85;;;;;;;;;;5084223;28;20197;-71
2022/04/20 04:14:53;;;;;;;58.47;2.70;;;;;;;;;;5090812;28;20295;-71
2022/04/20 04:17:20;;;;;;;58.10;2.60;;;;;;;;;;5083607;28;20296;-71
2022/04/20 04:19:47;;;;;;;57.83;2.53;;;;;;;;;;5091338;28;20230;-71
2022/04/20 04:22:14;;;;;;;58.40;2.90;;;;;;;;;;5089824;28;20208;-71
2022/04/20 04:24:42;;;;;;;58.08;2.70;;;;;;;;;;5092312;28;20291;-71
2022/04/20 04:27:12;;;;;;;58.38;2.55;;;;;;;;;;5089988;28;20278;-71
2022/04/20 04:29:40;;;;;;;58.67;3.45;;;;;;;;;;5089743;28;20220;-71
2022/04/20 04:32:07;;;;;;;57.70;2.78;;;;;;;;;;5087916;28;20274;-71
2022/04/20 04:34:34;;;;;;;58.28;2.70;;;;;;;;;;5091455;28;20287;-71
2022/04/20 04:37:02;;;;;;;58.15;2.63;;;;;;;;;;5089746;28;20204;-72
2022/04/20 04:39:29;;;;;;;58.50;2.78;;;;;;;;;;5079548;28;20653;-71
2022/04/20 04:42:02;;;;;;;57.90;2.70;;;;;;;;;;5091838;28;20262;-71
2022/04/20 04:44:32;;;;;;;58.47;2.90;;;;;;;;;;5089778;28;20197;-71
2022/04/20 04:49:44;;;;;;;58.40;2.80;;;;;;;;;;5088659;28;20758;-71
2022/04/20 04:52:12;;;;;;;58.30;2.88;;;;;;;;;;5091700;28;20668;-71
2022/04/20 04:54:43;;;;;;;58.38;2.78;;;;;;;;;;5090417;28;20200;-71
2022/04/20 04:57:12;;;;;;;58.13;2.72;;;;;;;;;;5088810;28;20265;-71
2022/04/20 04:59:41;;;;;;;58.15;3.20;;;;;;;;;;5089744;28;20838;-72
2022/04/20 05:02:08;;;;;;;58.30;2.78;;;;;;;;;;5084765;28;20208;-71
2022/04/20 05:04:35;;;;;;;58.13;3.10;;;;;;;;;;5090500;28;20243;-72
2022/04/20 05:07:03;;;;;;;58.45;3.40;;;;;;;;;;5091520;28;20197;-72
2022/04/20 05:09:30;;;;;;;58.40;3.10;;;;;;;;;;5084708;28;20247;-72
2022/04/20 05:11:57;;;;;;;58.38;2.78;;;;;;;;;;5085109;28;20200;-72
2022/04/20 05:14:24;;;;;;;58.15;2.80;;;;;;;;;;5089441;28;20282;-72
2022/04/20 05:16:55;;;;;;;58.38;3.00;;;;;;;;;;5090570;28;20603;-72
2022/04/20 05:19:22;;;;;;;58.35;2.75;;;;;;;;;;5077871;28;20216;-72
2022/04/20 05:21:49;;;;;;;58.15;3.00;;;;;;;;;;5083095;28;20243;-72
2022/04/20 05:24:17;;;;;;;57.95;3.05;;;;;;;;;;5090931;28;20201;-72
2022/04/20 05:26:44;;;;;;;58.38;2.80;;;;;;;;;;5090404;28;20197;-72
2022/04/20 05:29:12;;;;;;;58.50;2.90;;;;;;;;;;5090582;28;20224;-72
2022/04/20 05:31:39;;;;;;;58.35;2.72;;;;;;;;;;5087561;28;20197;-72
2022/04/20 05:34:07;;;;;;;58.45;2.92;;;;;;;;;;5087404;28;20200;-72
2022/04/20 05:42:00;;;;;;;58.10;2.45;;;;;;;;;;5086436;28;20215;-72
2022/04/20 05:44:27;;;;;;;58.28;2.75;;;;;;;;;;5088319;28;20338;-72
2022/04/20 05:46:54;;;;;;;58.35;2.90;;;;;;;;;;5086276;28;20204;-72
2022/04/20 05:49:23;;;;;;;58.15;2.60;;;;;;;;;;5082075;28;20232;-72
2022/04/20 05:51:50;;;;;;;58.17;2.60;;;;;;;;;;5091016;28;20236;-72
2022/04/20 05:54:17;;;;;;;57.70;2.80;;;;;;;;;;5092816;28;20643;-72
2022/04/20 05:56:44;;;;;;;58.20;2.90;;;;;;;;;;5095121;28;20695;-72
2022/04/20 05:59:11;;;;;;;58.28;3.08;;;;;;;;;;5092650;28;20307;-72
2022/04/20 06:01:38;;;;;;;58.08;2.63;;;;;;;;;;5094910;28;20204;-72
2022/04/20 06:04:06;;;;;;;58.13;2.65;;;;;;;;;;5088486;28;20678;-72
2022/04/20 06:06:34;;;;;;;58.28;2.72;;;;;;;;;;5094844;28;20236;-72
2022/04/20 06:09:02;;;;;;;58.08;2.50;;;;;;;;;;5092443;28;20712;-72
2022/04/20 06:11:30;;;;;;;58.10;2.50;;;;;;;;;;5093173;28;20295;-72
2022/04/20 06:13:58;;;;;;;58.10;2.60;;;;;;;;;;5090302;28;20647;-72
2022/04/20 06:16:25;;;;;;;58.28;2.90;;;;;;;;;;5086204;28;20203;-72
2022/04/20 06:18:52;;;;;;;58.20;2.72;;;;;;;;;;5086787;28;20229;-72
2022/04/20 06:21:19;;;;;;;58.08;2.58;;;;;;;;;;5092615;28;20201;-72
2022/04/20 06:23:48;;;;;;;58.20;2.65;;;;;;;;;;5082449;28;20681;-72
2022/04/20 06:26:15;;;;;;;58.28;2.58;;;;;;;;;;5089341;28;20987;-72
2022/04/20 06:28:42;;;;;;;58.15;2.63;;;;;;;;;;5088979;28;20260;-72
2022/04/20 06:31:09;;;;;;;58.20;2.80;;;;;;;;;;5088335;28;20746;-72
2022/04/20 06:33:37;;;;;;;58.17;2.83;;;;;;;;;;5091422;28;20661;-72
2022/04/20 06:36:04;;;;;;;58.30;2.67;;;;;;;;;;5085305;28;20472;-72
2022/04/20 06:38:31;;;;;;;58.17;2.50;;;;;;;;;;5082322;28;20232;-72
2022/04/20 06:40:59;;;;;;;58.03;2.55;;;;;;;;;;5085438;28;20581;-72
2022/04/20 06:43:27;;;;;;;58.08;2.67;;;;;;;;;;5084076;28;20668;-72
2022/04/20 06:45:54;;;;;;;58.20;2.90;;;;;;;;;;5088494;28;20716;-72
2022/04/20 06:48:22;;;;;;;58.05;2.65;;;;;;;;;;5084065;28;20231;-72
2022/04/20 06:50:49;;;;;;;58.33;2.75;;;;;;;;;;5088119;28;20224;-72
2022/04/20 06:58:50;;;;;;;58.17;2.60;;;;;;;;;;5084066;28;20707;-71
2022/04/20 07:01:17;;;;;;;58.08;2.55;;;;;;;;;;5084533;28;20195;-72
2022/04/20 07:03:44;;;;;;;57.97;2.42;;;;;;;;;;5083542;28;20198;-71
2022/04/20 07:06:12;;;;;;;58.20;2.80;;;;;;;;;;5086538;28;20245;-72
2022/04/20 07:08:39;;;;;;;58.17;2.70;;;;;;;;;;5078633;28;20227;-72
2022/04/20 07:11:08;;;;;;;58.17;2.67;;;;;;;;;;5093590;28;20228;-71
2022/04/20 07:13:35;;;;;;;57.90;2.75;;;;;;;;;;5092337;28;20196;-72
2022/04/20 07:16:02;;;;;;;58.13;2.70;;;;;;;;;;5085131;28;20211;-72
2022/04/20 07:18:30;;;;;;;58.08;2.50;;;;;;;;;;5091694;28;20312;-72
2022/04/20 07:20:59;;;;;;;57.87;2.63;;;;;;;;;;5091959;28;20670;-72
2022/04/20 07:23:26;;;;;;;58.70;3.47;;;;;;;;;;5091599;28;20448;-72
2022/04/20 07:25:54;;;;;;;58.17;2.55;;;;;;;;;;5093294;28;20591;-71
2022/04/20 07:28:22;;;;;;;57.88;2.65;;;;;;;;;;5092393;28;20724;-73
2022/04/20 07:30:50;;;;;;;58.00;2.50;;;;;;;;;;5093161;28;20220;-72
2022/04/20 07:33:17;;;;;;;58.30;2.47;;;;;;;;;;5093450;28;20664;-73
2022/04/20 07:35:45;;;;;;;58.08;2.70;;;;;;;;;;5093215;28;20211;-73
2022/04/20 07:38:12;;;;;;;57.97;2.55;;;;;;;;;;5092487;28;20221;-73
2022/04/20 07:40:39;;;;;;;58.17;2.70;;;;;;;;;;5093080;28;20202;-73
2022/04/20 07:43:06;;;;;;;58.20;2.60;;;;;;;;;;5092993;28;20235;-73
2022/04/20 07:45:35;;;;;;;57.93;2.60;;;;;;;;;;5092926;28;20206;-73
2022/04/20 07:48:02;;;;;;;57.97;2.80;;;;;;;;;;5092380;28;20541;-73
2022/04/20 07:50:29;;;;;;;58.25;2.72;;;;;;;;;;5092725;28;20225;-73
2022/04/20 07:52:57;;;;;;;58.00;2.55;;;;;;;;;;5092875;28;20627;-73
2022/04/20 07:55:25;;;;;;;57.70;2.60;;;;;;;;;;5092908;28;20201;-73
2022/04/20 07:57:53;;;;;;;58.08;2.67;;;;;;;;;;5091922;28;20557;-73
2022/04/20 08:00:22;;;;;;;57.97;2.45;;;;;;;;;;5092972;28;20294;-73
2022/04/20 08:02:50;;;;;;;57.88;2.60;;;;;;;;;;5092806;28;20208;-73
2022/04/20 08:05:19;;;;;;;57.97;2.43;;;;;;;;;;5092827;28;20210;-74
2022/04/20 08:07:46;;;;;;;58.03;2.50;;;;;;;;;;5091941;28;20816;-73
2022/04/20 08:10:14;;;;;;;58.07;2.77;;;;;;;;;;5091598;28;20489;-74
2022/04/20 08:12:42;;;;;;;57.97;2.70;;;;;;;;;;5092702;28;20539;-73
2022/04/20 08:15:10;;;;;;;57.93;2.53;;;;;;;;;;5092420;28;20513;-74
2022/04/20 08:17:38;;;;;;;58.07;2.47;;;;;;;;;;5091904;28;20448;-73
2022/04/20 08:20:07;;;;;;;57.90;2.43;;;;;;;;;;5092336;28;20499;-73
2022/04/20 08:22:35;;;;;;;57.87;2.60;;;;;;;;;;5092285;28;20933;-73
2022/04/20 08:25:05;;;;;;;57.97;2.50;;;;;;;;;;5092249;28;20675;-73
2022/04/20 08:27:32;;;;;;;57.87;2.33;;;;;;;;;;5091679;28;21032;-73
2022/04/20 08:29:59;;;;;;;57.83;2.30;;;;;;;;;;5092152;28;20489;-74
2022/04/20 08:32:26;;;;;;;58.17;2.50;;;;;;;;;;5092155;28;20960;-71
2022/04/20 08:34:54;;;;;;;58.00;2.23;;;;;;;;;;5092392;28;20449;-71
2022/04/20 08:37:22;;;;;;;57.77;2.60;;;;;;;;;;5091459;28;20505;-73
2022/04/20 08:39:49;;;;;;;57.77;2.30;;;;;;;;;;5092414;28;20564;-74
2022/04/20 08:42:18;;;;;;;57.97;2.60;;;;;;;;;;5092375;28;20484;-73
2022/04/20 08:44:47;;;;;;;58.40;3.30;;;;;;;;;;5092223;28;20457;-73
2022/04/20 08:47:18;;;;;;;58.27;2.80;;;;;;;;;;5091513;28;20480;-73
2022/04/20 08:49:47;;;;;;;58.03;2.60;;;;;;;;;;5092208;28;20478;-74
2022/04/20 08:55:00;;;;;;;58.17;2.70;;;;;;;;;;5092073;28;20424;-71
2022/04/20 08:57:27;;;;;;;57.97;2.70;;;;;;;;;;5091337;28;20460;-71
2022/04/20 08:59:54;;;;;;;57.93;2.60;;;;;;;;;;5091826;28;20468;-72
2022/04/20 09:02:24;;;;;;;57.93;2.73;;;;;;;;;;5091694;28;20450;-71
2022/04/20 09:04:52;;;;;;;58.00;2.70;;;;;;;;;;5092100;28;20449;-73
2022/04/20 09:07:19;;;;;;;58.17;2.40;;;;;;;;;;5091338;28;20492;-73
2022/04/20 09:09:47;;;;;;;57.87;2.50;;;;;;;;;;5091883;28;20553;-74
2022/04/20 09:12:17;;;;;;;57.97;2.80;;;;;;;;;;5091704;28;20454;-72
2022/04/20 09:14:45;;;;;;;57.93;2.70;;;;;;;;;;5091835;28;20946;-72
2022/04/20 09:17:13;;;;;;;57.97;2.67;;;;;;;;;;5090935;28;20955;-72
2022/04/20 09:19:40;;;;;;;57.87;2.63;;;;;;;;;;5092497;28;20466;-71
2022/04/20 09:22:18;;;;;;;57.87;2.70;;;;;;;;;;5096088;28;20438;-71
2022/04/20 09:24:58;;;;;;;58.20;2.70;;;;;;;;;;5096077;28;20450;-71
2022/04/20 09:27:27;;;;;;;57.87;2.63;;;;;;;;;;5094934;28;20457;-72
2022/04/20 09:29:55;;;;;;;57.93;2.50;;;;;;;;;;5095738;28;20470;-71
2022/04/20 09:32:35;;;;;;;57.90;2.50;;;;;;;;;;5095797;28;20446;-72
2022/04/20 09:35:05;;;;;;;58.07;2.50;;;;;;;;;;5095663;28;20533;-72
2022/04/20 09:37:32;;;;;;;57.83;2.60;;;;;;;;;;5094900;28;20475;-71
2022/04/20 09:40:00;;;;;;;57.90;2.40;;;;;;;;;;5095766;28;20470;-72
2022/04/20 09:42:29;;;;;;;57.83;2.50;;;;;;;;;;5095523;28;20445;-71
2022/04/20 09:44:59;;;;;;;58.07;2.50;;;;;;;;;;5095387;28;20457;-71
2022/04/20 09:50:12;;;;;;;57.87;2.60;;;;;;;;;;5095223;28;20525;-72
2022/04/20 09:52:41;;;;;;;57.83;2.60;;;;;;;;;;5095644;28;20448;-72
2022/04/20 09:55:09;;;;;;;57.97;2.70;;;;;;;;;;5095470;28;20508;-72
2022/04/20 09:57:37;;;;;;;58.07;2.53;;;;;;;;;;5093426;28;20508;-72
2022/04/20 10:00:08;;;;;;;58.10;3.27;;;;;;;;;;5095202;28;20462;-72
2022/04/20 10:02:38;;;;;;;57.93;2.40;;;;;;;;;;5094989;28;20453;-72
2022/04/20 10:05:05;;;;;;;57.77;2.50;;;;;;;;;;5094924;28;20956;-73
2022/04/20 10:07:32;;;;;;;57.93;2.40;;;;;;;;;;5094427;28;20515;-73
2022/04/20 10:10:00;;;;;;;58.00;2.20;;;;;;;;;;5095038;28;20461;-72
2022/04/20 10:12:29;;;;;;;57.80;2.13;;;;;;;;;;5094728;28;20486;-72
2022/04/20 10:17:46;;;;;;;57.93;2.20;;;;;;;;;;5094061;28;20430;-72
2022/04/20 10:20:14;;;;;;;57.53;2.00;;;;;;;;;;5094684;28;20444;-72
2022/04/20 10:22:42;;;;;;;57.70;2.20;;;;;;;;;;5094758;28;20821;-73
2022/04/20 10:25:09;;;;;;;57.63;1.97;;;;;;;;;;5095113;28;20798;-73
2022/04/20 10:27:43;;;;;;;57.83;2.27;;;;;;;;;;5093826;28;20446;-73
2022/04/20 10:30:16;;;;;;;57.67;2.00;;;;;;;;;;5094470;28;20450;-73
2022/04/20 10:32:51;;;;;;;57.63;2.07;;;;;;;;;;5093957;28;20446;-73
2022/04/20 10:35:18;;;;;;;57.80;2.20;;;;;;;;;;5094623;28;20891;-74
2022/04/20 10:38:00;;;;;;;57.77;2.13;;;;;;;;;;5093824;28;20481;-73
2022/04/20 10:40:28;;;;;;;57.40;1.90;;;;;;;;;;5094278;28;20522;-73
2022/04/20 10:43:10;;;;;;;57.60;2.30;;;;;;;;;;5094399;28;20892;-74
2022/04/20 10:45:38;;;;;;;57.40;1.90;;;;;;;;;;5094074;28;20879;-73
2022/04/20 10:48:05;;;;;;;57.43;1.80;;;;;;;;;;5093481;28;20593;-74
2022/04/20 10:50:33;;;;;;;57.33;1.90;;;;;;;;;;5093995;28;20526;-75
2022/04/20 10:53:03;;;;;;;57.27;1.77;;;;;;;;;;5093919;28;20461;-74
2022/04/20 10:55:49;;;;;;;57.17;1.90;;;;;;;;;;5094288;28;20853;-73
2022/04/20 10:58:21;;;;;;;57.20;1.80;;;;;;;;;;5093321;28;20469;-74
2022/04/20 11:01:08;;;;;;;57.40;1.83;;;;;;;;;;5093989;28;20529;-74
2022/04/20 11:03:50;;;;;;;57.27;1.90;;;;;;;;;;5093880;28;20447;-73
2022/04/20 11:06:17;;;;;;;56.97;1.80;;;;;;;;;;5093846;28;20446;-73
2022/04/20 11:08:44;;;;;;;56.97;1.60;;;;;;;;;;5092978;28;20490;-74
2022/04/20 11:19:52;;;;;;;56.87;1.80;;;;;;;;;;5093473;28;20448;-74
2022/04/20 11:22:21;;;;;;;57.17;1.80;;;;;;;;;;5093653;28;20450;-75
2022/04/20 11:24:48;;;;;;;57.10;2.37;;;;;;;;;;5093506;28;20451;-74
2022/04/20 11:27:15;;;;;;;57.47;2.03;;;;;;;;;;5092887;28;20447;-74
2022/04/20 11:29:44;;;;;;;57.30;1.80;;;;;;;;;;5093534;28;20470;-73
2022/04/20 11:32:15;;;;;;;57.27;1.60;;;;;;;;;;5093357;28;20486;-73
2022/04/20 11:34:42;;;;;;;58.07;3.07;;;;;;;;;;5093499;28;20442;-73
2022/04/20 11:37:10;;;;;;;57.03;1.70;;;;;;;;;;5092860;28;20478;-73
2022/04/20 11:39:37;;;;;;;57.27;1.70;;;;;;;;;;5093306;28;20466;-74
2022/04/20 11:42:05;;;;;;;57.07;1.60;;;;;;;;;;5093319;28;20477;-74
2022/04/20 11:44:33;;;;;;;56.90;1.70;;;;;;;;;;5092044;28;20490;-74
2022/04/20 11:47:03;;;;;;;56.87;1.70;;;;;;;;;;5092899;28;20822;-73
2022/04/20 11:49:34;;;;;;;57.30;1.70;;;;;;;;;;5092847;28;20569;-74
2022/04/20 11:52:03;;;;;;;57.57;1.80;;;;;;;;;;5092923;28;20478;-74
2022/04/20 11:54:30;;;;;;;57.23;1.80;;;;;;;;;;5092928;28;20484;-71
2022/04/20 11:56:57;;;;;;;57.20;1.80;;;;;;;;;;5092812;28;20979;-74
2022/04/20 11:59:25;;;;;;;56.93;1.80;;;;;;;;;;5091988;28;20462;-74
2022/04/20 12:01:53;;;;;;;57.00;1.80;;;;;;;;;;5092761;28;20446;-74
2022/04/20 12:04:20;;;;;;;57.13;1.80;;;;;;;;;;5092874;28;20486;-74
2022/04/20 12:06:52;;;;;;;56.87;1.73;;;;;;;;;;5093022;28;20450;-74
2022/04/20 12:09:20;;;;;;;56.83;1.67;;;;;;;;;;5091920;28;20473;-74
2022/04/20 12:11:48;;;;;;;56.83;1.70;;;;;;;;;;5093070;28;20516;-74
2022/04/20 12:14:16;;;;;;;57.30;2.63;;;;;;;;;;5092355;28;20462;-74
2022/04/20 12:16:43;;;;;;;56.77;1.70;;;;;;;;;;5092534;28;20446;-74
2022/04/20 12:19:11;;;;;;;56.67;1.60;;;;;;;;;;5091670;28;20560;-75
2022/04/20 12:21:42;;;;;;;56.80;1.53;;;;;;;;;;5092509;28;20445;-74
2022/04/20 12:24:19;;;;;;;57.10;1.97;;;;;;;;;;5092291;28;20454;-73
2022/04/20 12:26:48;;;;;;;56.87;1.60;;;;;;;;;;5092542;28;20438;-74
2022/04/20 12:29:16;;;;;;;57.27;1.90;;;;;;;;;;5091765;28;20509;-74
2022/04/20 12:31:43;;;;;;;57.17;1.73;;;;;;;;;;5092257;28;20481;-74
2022/04/20 12:34:11;;;;;;;56.77;1.60;;;;;;;;;;5092096;28;20947;-74
2022/04/20 12:36:56;;;;;;;57.07;1.57;;;;;;;;;;5092244;28;20538;-73
2022/04/20 12:39:26;;;;;;;57.17;1.70;;;;;;;;;;5091683;28;20482;-73
2022/04/20 12:41:54;;;;;;;57.57;1.87;;;;;;;;;;5092145;28;20456;-73
2022/04/20 12:44:41;;;;;;;57.00;1.80;;;;;;;;;;5092241;28;20889;-74
2022/04/20 12:47:27;;;;;;;57.03;1.70;;;;;;;;;;5091804;28;20489;-74
2022/04/20 12:50:16;;;;;;;57.07;1.70;;;;;;;;;;5091953;28;20510;-74
2022/04/20 12:52:50;;;;;;;57.20;1.90;;;;;;;;;;5092020;28;20489;-74
2022/04/20 12:55:18;;;;;;;57.13;1.67;;;;;;;;;;5091745;28;20816;-73
2022/04/20 13:03:34;;;;;;;57.17;1.90;;;;;;;;;;5091508;28;20439;-73
2022/04/20 13:06:01;;;;;;;57.10;1.80;;;;;;;;;;5091899;28;20448;-73
2022/04/20 13:08:28;;;;;;;56.87;1.70;;;;;;;;;;5090966;28;20492;-75
2022/04/20 13:10:58;;;;;;;57.17;1.90;;;;;;;;;;5091686;28;20438;-75
2022/04/20 13:13:25;;;;;;;56.70;1.50;;;;;;;;;;5091812;28;20499;-75
2022/04/20 13:15:52;;;;;;;56.90;1.50;;;;;;;;;;5091753;28;20485;-74
2022/04/20 13:18:20;;;;;;;57.30;1.80;;;;;;;;;;5091019;28;20508;-75
2022/04/20 13:20:47;;;;;;;56.80;1.70;;;;;;;;;;5091653;28;20459;-75
2022/04/20 13:23:14;;;;;;;56.73;1.50;;;;;;;;;;5091569;28;20437;-74
2022/04/20 13:28:28;;;;;;;56.97;1.80;;;;;;;;;;5091075;28;20568;-74
2022/04/20 13:30:56;;;;;;;57.23;1.70;;;;;;;;;;5091653;28;20455;-74
2022/04/20 13:33:23;;;;;;;57.07;1.80;;;;;;;;;;5091436;28;20529;-74
2022/04/20 13:35:53;;;;;;;56.77;1.60;;;;;;;;;;5091816;28;20456;-74
2022/04/20 13:38:20;;;;;;;56.80;1.60;;;;;;;;;;5091352;28;20470;-75
2022/04/20 13:40:48;;;;;;;56.67;1.70;;;;;;;;;;5091806;28;21030;-74
2022/04/20 13:43:15;;;;;;;57.10;1.60;;;;;;;;;;5091551;28;20455;-75
2022/04/20 13:45:44;;;;;;;56.77;1.50;;;;;;;;;;5091515;28;20493;-74
2022/04/20 13:48:11;;;;;;;56.80;1.50;;;;;;;;;;5090546;28;20463;-74
2022/04/20 13:50:38;;;;;;;57.07;1.60;;;;;;;;;;5091638;28;20478;-74
2022/04/20 13:53:07;;;;;;;56.80;1.70;;;;;;;;;;5091325;28;20569;-75
2022/04/20 13:55:34;;;;;;;56.80;1.70;;;;;;;;;;5091477;28;20448;-75
2022/04/20 13:58:01;;;;;;;57.00;1.50;;;;;;;;;;5090631;28;20486;-74
2022/04/20 14:00:29;;;;;;;56.93;1.90;;;;;;;;;;5091241;28;20968;-74
2022/04/20 14:02:58;;;;;;;56.87;1.60;;;;;;;;;;5091273;28;20939;-74
2022/04/20 14:05:25;;;;;;;57.03;1.60;;;;;;;;;;5091259;28;20537;-74
2022/04/20 14:07:52;;;;;;;57.40;2.07;;;;;;;;;;5092617;28;20454;-74
2022/04/20 14:10:19;;;;;;;57.57;2.30;;;;;;;;;;5094986;28;20447;-74
2022/04/20 14:12:47;;;;;;;57.47;2.07;;;;;;;;;;5094658;28;20513;-74
2022/04/20 14:15:16;;;;;;;57.37;1.90;;;;;;;;;;5095035;28;20534;-74
2022/04/20 14:17:44;;;;;;;57.37;1.70;;;;;;;;;;5094397;28;20455;-74
2022/04/20 14:20:13;;;;;;;57.53;2.10;;;;;;;;;;5094864;28;20467;-74
2022/04/20 14:22:41;;;;;;;57.70;1.90;;;;;;;;;;5094647;28;20446;-74
2022/04/20 14:33:26;;;;;;;57.17;1.60;;;;;;;;;;5094384;28;20489;-74
2022/04/20 14:35:55;;;;;;;57.17;1.73;;;;;;;;;;5094388;28;20446;-74
2022/04/20 14:38:22;;;;;;;57.30;1.90;;;;;;;;;;5093872;28;20462;-74
2022/04/20 14:40:49;;;;;;;57.27;1.70;;;;;;;;;;5094550;28;20446;-73
2022/04/20 14:43:17;;;;;;;57.30;1.90;;;;;;;;;;5094199;28;20453;-73
2022/04/20 14:45:44;;;;;;;57.53;1.90;;;;;;;;;;5094298;28;20478;-73
2022/04/20 14:48:11;;;;;;;57.70;1.90;;;;;;;;;;5093387;28;20557;-74
2022/04/20 14:50:39;;;;;;;57.53;1.90;;;;;;;;;;5094170;28;20428;-73
2022/04/20 14:53:08;;;;;;;57.47;2.00;;;;;;;;;;5094283;28;20846;-73
2022/04/20 14:55:36;;;;;;;58.10;3.27;;;;;;;;;;5094098;28;20450;-73
2022/04/20 14:58:04;;;;;;;57.27;2.10;;;;;;;;;;5093228;28;21177;-73
2022/04/20 15:00:31;;;;;;;57.50;2.00;;;;;;;;;;5094099;28;20486;-73
2022/04/20 15:02:58;;;;;;;57.77;2.20;;;;;;;;;;5093790;28;20534;-73
2022/04/20 15:05:26;;;;;;;57.70;2.10;;;;;;;;;;5094071;28;20457;-73
2022/04/20 15:07:54;;;;;;;57.47;2.20;;;;;;;;;;5093235;28;20451;-73
2022/04/20 15:10:23;;;;;;;57.77;2.00;;;;;;;;;;5093810;28;20502;-73
2022/04/20 15:12:51;;;;;;;57.60;2.20;;;;;;;;;;5093638;28;20823;-73
2022/04/20 15:15:19;;;;;;;57.33;2.20;;;;;;;;;;5093587;28;20493;-73
2022/04/20 15:17:46;;;;;;;57.67;2.00;;;;;;;;;;5092921;28;20451;-73
2022/04/20 15:20:13;;;;;;;57.37;2.10;;;;;;;;;;5093733;28;20798;-73
2022/04/20 15:22:42;;;;;;;57.53;2.27;;;;;;;;;;5093595;28;20467;-73
2022/04/20 15:25:10;;;;;;;57.27;2.10;;;;;;;;;;5093641;28;20542;-73
2022/04/20 15:27:38;;;;;;;57.73;2.07;;;;;;;;;;5093222;28;20457;-73